Time;durP1;ratioP1;P1;durP2;ratioP2;P2;SDS_P1;SDS_P2;PMS_P1;PMS_P2;Temp;Humidity;BMP_temperature;BMP_pressure;BME280_temperature;BME280_humidity;BME280_pressure;Samples;Min_cycle;Max_cycle;Signal;HPM_P1;HPM_P2
2024/04/07 00:01:34;;;;;;;4.40;3.03;;;22.30;42.90;;;;;;5063131;28;20188;-60
2024/04/07 00:04:00;;;;;;;3.40;3.10;;;22.40;42.90;;;;;;5060715;28;20949;-60
2024/04/07 00:06:29;;;;;;;8.37;3.13;;;22.20;43.10;;;;;;5059941;28;20271;-60
2024/04/07 00:08:55;;;;;;;3.30;2.80;;;22.30;43.00;;;;;;5061987;28;20883;-60
2024/04/07 00:11:21;;;;;;;2.80;2.60;;;22.40;42.80;;;;;;5061696;28;20492;-59
2024/04/07 00:13:46;;;;;;;3.93;2.47;;;22.60;42.30;;;;;;5060535;28;20411;-61
2024/04/07 00:16:12;;;;;;;4.70;2.27;;;22.90;42.10;;;;;;5066347;28;20695;-61
2024/04/07 00:18:38;;;;;;;3.27;2.40;;;23.00;41.50;;;;;;5061527;28;20595;-61
2024/04/07 00:21:04;;;;;;;4.40;2.47;;;23.20;41.80;;;;;;5061268;28;20184;-59
2024/04/07 00:23:31;;;;;;;5.80;2.43;;;23.00;40.80;;;;;;5061717;28;20275;-61
2024/04/07 00:25:57;;;;;;;3.20;2.60;;;23.00;41.50;;;;;;5060134;28;20457;-59
2024/04/07 00:28:23;;;;;;;4.07;2.57;;;23.10;41.20;;;;;;5059916;28;20462;-59
2024/04/07 00:30:49;;;;;;;6.37;2.50;;;23.00;41.20;;;;;;5059750;28;20492;-60
2024/04/07 00:33:15;;;;;;;4.40;2.70;;;23.10;41.50;;;;;;5060369;28;20444;-57
2024/04/07 00:35:52;;;;;;;3.40;3.00;;;23.20;41.00;;;;;;5060401;28;21032;-61
2024/04/07 00:38:17;;;;;;;2.83;2.60;;;23.30;40.60;;;;;;5062917;28;20871;-58
2024/04/07 00:40:43;;;;;;;3.20;2.70;;;23.50;40.80;;;;;;5067084;28;20434;-62
2024/04/07 00:43:08;;;;;;;5.00;3.23;;;23.30;40.90;;;;;;5061543;28;20671;-57
2024/04/07 00:45:35;;;;;;;3.60;2.70;;;23.40;41.00;;;;;;5064199;28;20183;-54
2024/04/07 00:48:01;;;;;;;2.60;2.40;;;23.30;40.80;;;;;;5060429;28;20211;-58
2024/04/07 00:50:27;;;;;;;5.57;2.87;;;23.30;40.70;;;;;;5061365;28;20453;-59
2024/04/07 00:52:54;;;;;;;4.77;3.10;;;23.00;41.00;;;;;;5062326;28;20564;-60
2024/04/07 00:55:19;;;;;;;7.07;3.50;;;23.10;41.30;;;;;;5064419;28;20477;-61
2024/04/07 00:57:47;;;;;;;3.03;2.30;;;23.30;41.10;;;;;;5069049;28;20541;-57
2024/04/07 01:00:12;;;;;;;2.70;2.50;;;23.40;41.00;;;;;;5063579;28;20176;-58
2024/04/07 01:02:38;;;;;;;4.07;2.50;;;23.40;41.00;;;;;;5063201;28;20973;-58
2024/04/07 01:05:04;;;;;;;3.37;3.07;;;23.50;40.60;;;;;;5059943;28;20184;-61
2024/04/07 01:07:30;;;;;;;2.50;2.30;;;23.40;40.50;;;;;;5065185;28;20819;-57
2024/04/07 01:09:56;;;;;;;5.60;2.77;;;23.50;40.50;;;;;;5062921;28;20237;-61
2024/04/07 01:12:21;;;;;;;2.50;2.30;;;23.40;40.00;;;;;;5059216;28;20200;-62
2024/04/07 01:14:47;;;;;;;2.67;2.40;;;23.50;39.80;;;;;;5058134;28;20526;-58
2024/04/07 01:17:12;;;;;;;2.83;2.63;;;23.50;40.10;;;;;;5058761;28;20599;-58
2024/04/07 01:19:38;;;;;;;3.83;2.47;;;23.60;40.20;;;;;;5060255;28;20199;-58
2024/04/07 01:22:04;;;;;;;5.50;2.60;;;23.60;40.10;;;;;;5058906;28;20212;-63
2024/04/07 01:24:29;;;;;;;4.43;3.17;;;23.60;39.80;;;;;;5058627;28;20601;-56
2024/04/07 01:26:55;;;;;;;2.90;2.33;;;23.60;40.40;;;;;;5059722;28;20617;-59
2024/04/07 01:29:20;;;;;;;6.40;2.73;;;23.50;40.50;;;;;;5061118;28;20770;-58
2024/04/07 01:31:46;;;;;;;3.23;2.30;;;23.40;41.30;;;;;;5060570;28;20207;-59
2024/04/07 01:34:12;;;;;;;2.90;2.70;;;23.40;41.10;;;;;;5062582;28;20379;-62
2024/04/07 01:36:38;;;;;;;3.47;3.17;;;23.50;40.90;;;;;;5058227;28;20218;-63
2024/04/07 01:39:07;;;;;;;2.63;2.43;;;23.40;40.80;;;;;;5060082;28;20373;-60
2024/04/07 01:41:33;;;;;;;3.57;2.87;;;23.00;41.30;;;;;;5057963;28;20441;-61
2024/04/07 01:43:59;;;;;;;3.23;2.93;;;22.90;41.60;;;;;;5061079;28;20472;-58
2024/04/07 01:46:24;;;;;;;3.43;3.13;;;23.10;41.60;;;;;;5060755;28;20426;-59
2024/04/07 01:48:50;;;;;;;4.00;2.87;;;23.20;41.40;;;;;;5064896;28;20191;-63
2024/04/07 01:51:16;;;;;;;2.93;2.47;;;23.20;41.30;;;;;;5057392;28;20637;-63
2024/04/07 01:53:41;;;;;;;5.93;3.30;;;23.20;41.60;;;;;;5060064;28;20716;-59
2024/04/07 01:56:07;;;;;;;3.93;2.73;;;23.10;41.50;;;;;;5061379;28;20211;-66
2024/04/07 01:58:32;;;;;;;3.67;3.37;;;23.20;41.70;;;;;;5063902;28;20291;-60
2024/04/07 02:00:58;;;;;;;3.00;2.60;;;23.30;41.50;;;;;;5061303;28;20671;-63
2024/04/07 02:03:24;;;;;;;4.67;3.70;;;23.30;41.20;;;;;;5064617;28;20640;-60
2024/04/07 02:05:49;;;;;;;3.17;2.87;;;23.20;41.40;;;;;;5056394;28;20192;-58
2024/04/07 02:08:15;;;;;;;3.83;2.73;;;23.20;41.80;;;;;;5063599;28;20207;-60
2024/04/07 02:10:50;;;;;;;3.80;2.87;;;23.10;41.90;;;;;;5059103;28;20188;-63
2024/04/07 02:13:16;;;;;;;3.97;2.90;;;23.10;42.70;;;;;;5054794;28;20190;-61
2024/04/07 02:15:42;;;;;;;2.90;2.50;;;23.10;42.10;;;;;;5057795;28;20588;-59
2024/04/07 02:18:08;;;;;;;3.10;2.80;;;23.10;41.70;;;;;;5060475;28;20508;-62
2024/04/07 02:20:34;;;;;;;3.60;3.30;;;22.90;41.90;;;;;;5060634;28;20438;-58
2024/04/07 02:23:00;;;;;;;2.70;2.50;;;22.80;41.60;;;;;;5060045;28;20195;-58
2024/04/07 02:25:26;;;;;;;3.67;2.80;;;22.80;41.60;;;;;;5060663;28;20197;-59
2024/04/07 02:27:51;;;;;;;3.17;2.70;;;22.70;42.30;;;;;;5060814;28;20200;-59
2024/04/07 02:30:17;;;;;;;6.70;2.67;;;22.50;42.20;;;;;;5059377;28;20468;-59
2024/04/07 02:32:42;;;;;;;3.30;3.00;;;22.50;42.00;;;;;;5063283;28;20212;-60
2024/04/07 02:35:08;;;;;;;3.03;2.73;;;22.60;42.40;;;;;;5061338;28;20648;-60
2024/04/07 02:37:34;;;;;;;5.63;3.03;;;22.60;42.00;;;;;;5061909;28;20231;-60
2024/04/07 02:40:00;;;;;;;3.07;2.77;;;22.70;41.50;;;;;;5059897;28;20196;-59
2024/04/07 02:42:26;;;;;;;2.90;2.70;;;22.40;42.10;;;;;;5060929;28;20211;-58
2024/04/07 02:50:19;;;;;;;3.70;2.30;;;22.60;41.50;;;;;;5059478;28;20441;-57
2024/04/07 02:52:45;;;;;;;3.90;2.77;;;22.60;41.30;;;;;;5065033;28;20509;-61
2024/04/07 02:55:10;;;;;;;2.40;2.10;;;22.60;41.90;;;;;;5063253;28;20177;-62
2024/04/07 02:57:36;;;;;;;3.23;2.30;;;22.60;42.00;;;;;;5059408;28;20273;-57
2024/04/07 03:00:02;;;;;;;2.50;2.30;;;22.60;41.30;;;;;;5065763;28;20176;-59
2024/04/07 03:02:28;;;;;;;3.07;2.17;;;22.60;41.70;;;;;;5064377;28;20270;-57
2024/04/07 03:04:53;;;;;;;4.80;2.50;;;22.70;41.20;;;;;;5065798;28;20446;-62
2024/04/07 03:07:19;;;;;;;2.43;2.23;;;22.80;41.40;;;;;;5066529;28;20204;-61
2024/04/07 03:09:45;;;;;;;4.63;2.63;;;22.80;41.90;;;;;;5066915;28;20244;-62
2024/04/07 03:12:11;;;;;;;3.33;2.80;;;22.80;41.40;;;;;;5065153;28;20188;-58
2024/04/07 03:14:36;;;;;;;3.10;2.80;;;22.90;41.70;;;;;;5061272;28;20953;-59
2024/04/07 03:17:02;;;;;;;3.30;3.00;;;22.80;42.10;;;;;;5060507;28;20208;-60
2024/04/07 03:19:28;;;;;;;5.50;2.90;;;22.60;42.30;;;;;;5065440;28;20192;-62
2024/04/07 03:21:53;;;;;;;7.53;2.47;;;22.50;42.70;;;;;;5062653;28;20242;-63
2024/04/07 03:24:19;;;;;;;5.83;3.03;;;22.40;43.30;;;;;;5067291;28;20187;-59
2024/04/07 03:26:44;;;;;;;3.60;2.70;;;22.50;43.40;;;;;;5067724;28;20227;-60
2024/04/07 03:29:10;;;;;;;3.17;2.93;;;22.60;43.20;;;;;;5066754;28;20671;-63
2024/04/07 03:31:35;;;;;;;7.70;3.00;;;22.70;43.10;;;;;;5065194;28;20278;-61
2024/04/07 03:34:01;;;;;;;3.40;3.10;;;22.80;42.80;;;;;;5057352;28;20192;-57
2024/04/07 03:36:27;;;;;;;4.30;3.00;;;22.70;42.50;;;;;;5060248;28;20212;-61
2024/04/07 03:38:53;;;;;;;3.07;2.77;;;22.60;42.60;;;;;;5062130;28;20179;-56
2024/04/07 03:41:18;;;;;;;4.67;3.30;;;22.10;43.60;;;;;;5057933;28;20439;-57
2024/04/07 03:43:44;;;;;;;3.10;2.90;;;22.20;43.80;;;;;;5061585;28;20570;-62
2024/04/07 03:46:10;;;;;;;3.00;2.70;;;22.40;43.60;;;;;;5060805;28;20206;-65
2024/04/07 03:48:35;;;;;;;2.50;2.30;;;22.50;43.60;;;;;;5060488;28;20242;-58
2024/04/07 03:51:05;;;;;;;4.30;2.97;;;22.60;43.20;;;;;;5059753;28;20215;-60
2024/04/07 03:53:31;;;;;;;3.43;2.60;;;22.50;43.00;;;;;;5062896;28;20595;-58
2024/04/07 03:55:56;;;;;;;3.43;2.70;;;22.50;43.20;;;;;;5066695;28;20584;-60
2024/04/07 03:58:22;;;;;;;3.47;2.50;;;22.50;43.50;;;;;;5058973;28;20575;-62
2024/04/07 04:00:48;;;;;;;3.27;2.97;;;22.60;43.50;;;;;;5060784;28;20191;-59
2024/04/07 04:03:13;;;;;;;3.23;2.93;;;22.50;43.00;;;;;;5068329;28;20327;-60
2024/04/07 04:05:39;;;;;;;3.20;2.90;;;22.40;43.50;;;;;;5065555;28;20195;-60
2024/04/07 04:08:05;;;;;;;4.17;2.57;;;22.50;43.40;;;;;;5067758;28;20250;-61
2024/04/07 04:10:30;;;;;;;3.47;3.17;;;22.60;43.00;;;;;;5061494;28;20207;-58
2024/04/07 04:12:56;;;;;;;3.30;3.00;;;22.60;43.00;;;;;;5064999;28;20423;-61
2024/04/07 04:15:22;;;;;;;3.50;2.63;;;22.40;43.10;;;;;;5067447;28;20216;-58
2024/04/07 04:17:47;;;;;;;2.57;2.37;;;22.50;43.30;;;;;;5064641;28;20214;-58
2024/04/07 04:20:13;;;;;;;3.27;2.97;;;22.60;43.10;;;;;;5062312;28;20249;-61
2024/04/07 04:22:43;;;;;;;4.10;2.77;;;22.30;42.70;;;;;;5058654;28;20238;-62
2024/04/07 04:25:08;;;;;;;4.93;2.80;;;22.30;43.70;;;;;;5063723;28;20183;-63
2024/04/07 04:27:34;;;;;;;6.47;3.10;;;22.30;43.40;;;;;;5060247;28;20994;-62
2024/04/07 04:29:59;;;;;;;10.00;3.03;;;22.40;43.00;;;;;;5060380;28;20367;-61
2024/04/07 04:32:25;;;;;;;5.10;3.10;;;22.50;42.80;;;;;;5055542;28;20192;-61
2024/04/07 04:34:50;;;;;;;3.40;3.03;;;22.50;43.20;;;;;;5059253;28;20180;-62
2024/04/07 04:37:17;;;;;;;3.00;2.70;;;22.50;43.50;;;;;;5064829;28;20219;-61
2024/04/07 04:39:42;;;;;;;5.20;3.07;;;22.60;43.10;;;;;;5059417;28;20274;-62
2024/04/07 04:42:08;;;;;;;4.63;2.90;;;22.60;42.70;;;;;;5060709;28;20908;-63
2024/04/07 04:44:34;;;;;;;4.27;2.87;;;22.60;42.70;;;;;;5061435;28;20540;-61
2024/04/07 04:47:00;;;;;;;3.57;2.70;;;22.50;43.10;;;;;;5059511;28;20200;-58
2024/04/07 04:49:25;;;;;;;5.87;2.63;;;22.50;43.20;;;;;;5062401;28;20914;-55
2024/04/07 04:51:54;;;;;;;5.40;2.47;;;22.50;43.40;;;;;;5063517;28;20194;-57
2024/04/07 04:54:19;;;;;;;3.83;2.77;;;22.60;43.30;;;;;;5062888;28;20185;-58
2024/04/07 04:56:45;;;;;;;3.00;2.70;;;22.60;43.30;;;;;;5066643;28;20478;-62
2024/04/07 04:59:10;;;;;;;4.13;2.57;;;22.70;43.30;;;;;;5065749;28;20184;-61
2024/04/07 05:01:36;;;;;;;3.37;3.07;;;22.70;43.00;;;;;;5064939;28;20188;-58
2024/04/07 05:04:01;;;;;;;2.67;2.47;;;22.80;42.80;;;;;;5063660;28;20184;-61
2024/04/07 05:06:27;;;;;;;3.40;2.63;;;22.80;42.70;;;;;;5067185;28;20237;-61
2024/04/07 05:08:52;;;;;;;2.97;2.77;;;22.80;42.70;;;;;;5059125;28;20187;-56
2024/04/07 05:11:18;;;;;;;4.33;2.73;;;22.90;43.00;;;;;;5061501;28;20185;-58
2024/04/07 05:13:44;;;;;;;3.60;3.27;;;21.90;44.10;;;;;;5067766;28;20607;-62
2024/04/07 05:16:10;;;;;;;4.10;3.53;;;21.90;44.70;;;;;;5063561;28;20706;-62
2024/04/07 05:18:36;;;;;;;4.37;3.97;;;22.00;44.80;;;;;;5063963;28;20453;-62
2024/04/07 05:21:04;;;;;;;4.50;3.70;;;22.00;44.60;;;;;;5068530;28;20488;-61
2024/04/07 05:23:35;;;;;;;4.77;3.23;;;21.80;44.50;;;;;;5063310;28;20199;-61
2024/04/07 05:26:22;;;;;;;3.33;3.00;;;21.50;45.30;;;;;;5056700;28;20449;-60
2024/04/07 05:28:48;;;;;;;3.67;3.33;;;21.20;45.70;;;;;;5060057;28;20466;-60
2024/04/07 05:31:14;;;;;;;4.33;3.10;;;20.90;46.30;;;;;;5058652;28;20849;-59
2024/04/07 05:33:40;;;;;;;3.40;2.93;;;20.90;46.20;;;;;;5062994;28;20212;-60
2024/04/07 05:36:07;;;;;;;5.00;3.07;;;20.90;46.20;;;;;;5057339;28;20215;-57
2024/04/07 05:38:39;;;;;;;3.10;2.63;;;20.80;46.30;;;;;;5058730;28;20583;-59
2024/04/07 05:41:06;;;;;;;4.83;2.70;;;20.70;47.20;;;;;;5057351;28;20507;-60
2024/04/07 05:43:32;;;;;;;3.77;3.40;;;20.70;46.60;;;;;;5062921;28;20442;-64
2024/04/07 05:46:03;;;;;;;3.60;3.30;;;20.80;46.50;;;;;;5057671;28;20438;-63
2024/04/07 05:48:29;;;;;;;9.70;3.23;;;20.80;46.30;;;;;;5062988;28;20537;-62
2024/04/07 05:50:56;;;;;;;3.53;2.83;;;20.80;46.30;;;;;;5060051;28;20962;-61
2024/04/07 05:53:21;;;;;;;4.53;2.90;;;20.80;46.00;;;;;;5064231;28;20437;-63
2024/04/07 05:55:47;;;;;;;3.70;2.53;;;20.80;46.00;;;;;;5059780;28;21089;-60
2024/04/07 05:58:14;;;;;;;2.83;2.53;;;20.70;46.00;;;;;;5057883;28;20209;-62
2024/04/07 06:00:40;;;;;;;2.87;2.57;;;20.80;45.90;;;;;;5055218;28;20212;-63
2024/04/07 06:03:06;;;;;;;2.73;2.53;;;20.80;46.00;;;;;;5063851;28;20910;-63
2024/04/07 06:05:32;;;;;;;5.03;2.90;;;20.70;45.90;;;;;;5056476;28;20533;-63
2024/04/07 06:07:58;;;;;;;4.30;3.27;;;20.80;46.10;;;;;;5057245;28;20214;-62
2024/04/07 06:10:24;;;;;;;4.03;2.93;;;20.80;46.20;;;;;;5058448;28;20529;-59
2024/04/07 06:12:51;;;;;;;3.13;2.50;;;20.90;46.10;;;;;;5056030;28;20249;-62
2024/04/07 06:15:18;;;;;;;3.03;2.70;;;21.00;46.00;;;;;;5056920;28;20276;-62
2024/04/07 06:17:47;;;;;;;3.23;2.63;;;21.00;46.00;;;;;;5050219;28;20920;-61
2024/04/07 06:20:13;;;;;;;2.77;2.57;;;21.10;46.20;;;;;;5053501;28;20489;-61
2024/04/07 06:22:38;;;;;;;3.63;2.93;;;21.10;45.90;;;;;;5063097;28;20941;-60
2024/04/07 06:25:04;;;;;;;3.93;3.60;;;21.10;45.80;;;;;;5060912;28;20188;-62
2024/04/07 06:27:34;;;;;;;3.10;2.80;;;21.20;45.90;;;;;;5060952;28;20222;-60
2024/04/07 06:30:00;;;;;;;4.33;2.97;;;21.20;46.00;;;;;;5056427;28;20430;-61
2024/04/07 06:32:26;;;;;;;4.30;3.30;;;21.20;46.00;;;;;;5067818;28;21142;-58
2024/04/07 06:34:52;;;;;;;4.60;2.67;;;21.10;46.60;;;;;;5050575;28;20185;-62
2024/04/07 06:37:17;;;;;;;3.77;2.90;;;21.00;46.90;;;;;;5058780;28;20486;-59
2024/04/07 06:39:43;;;;;;;3.90;3.47;;;21.00;46.90;;;;;;5064748;28;20639;-60
2024/04/07 06:42:08;;;;;;;3.37;3.07;;;21.20;46.80;;;;;;5067177;28;20196;-65
2024/04/07 06:44:34;;;;;;;3.07;2.87;;;21.30;46.90;;;;;;5068413;28;20184;-63
2024/04/07 06:47:03;;;;;;;8.53;2.80;;;21.30;47.20;;;;;;5062274;28;20427;-59
2024/04/07 06:49:29;;;;;;;3.03;2.73;;;21.40;47.30;;;;;;5066099;28;20187;-61
2024/04/07 06:51:54;;;;;;;3.30;3.00;;;21.50;47.40;;;;;;5065124;28;20427;-58
2024/04/07 06:54:20;;;;;;;4.80;3.20;;;21.60;47.30;;;;;;5063492;28;20189;-62
2024/04/07 06:56:46;;;;;;;7.00;3.60;;;21.70;47.00;;;;;;5061129;28;20220;-61
2024/04/07 06:59:11;;;;;;;4.83;3.17;;;21.70;46.80;;;;;;5064121;28;20238;-59
2024/04/07 07:01:37;;;;;;;2.90;2.70;;;21.60;46.70;;;;;;5063802;28;20711;-59
2024/04/07 07:04:06;;;;;;;2.57;2.37;;;21.50;46.60;;;;;;5065451;28;20179;-61
2024/04/07 07:06:31;;;;;;;3.93;2.73;;;21.20;47.20;;;;;;5066603;28;20222;-61
2024/04/07 07:08:57;;;;;;;4.33;2.97;;;21.00;47.40;;;;;;5065801;28;20945;-61
2024/04/07 07:11:23;;;;;;;5.30;3.10;;;21.10;47.70;;;;;;5069830;28;20233;-60
2024/04/07 07:13:53;;;;;;;3.90;3.03;;;21.20;47.40;;;;;;5069876;28;20180;-62
2024/04/07 07:16:18;;;;;;;3.40;3.20;;;21.40;47.20;;;;;;5061949;28;20742;-62
2024/04/07 07:18:44;;;;;;;3.23;2.90;;;21.30;47.60;;;;;;5068794;28;20500;-61
2024/04/07 07:21:09;;;;;;;3.43;3.10;;;21.30;47.40;;;;;;5061159;28;20663;-60
2024/04/07 07:23:38;;;;;;;5.80;2.80;;;21.50;47.30;;;;;;5064496;28;20628;-59
2024/04/07 07:26:04;;;;;;;4.03;3.23;;;21.50;47.30;;;;;;5054969;28;20311;-63
2024/04/07 07:28:30;;;;;;;2.90;2.10;;;21.70;47.60;;;;;;5060783;28;20581;-60
2024/04/07 07:30:56;;;;;;;4.90;3.27;;;21.60;47.50;;;;;;5061254;28;20704;-60
2024/04/07 07:33:21;;;;;;;4.03;2.83;;;21.80;47.40;;;;;;5065335;28;20724;-62
2024/04/07 07:35:50;;;;;;;4.20;3.00;;;21.90;47.10;;;;;;5064106;28;20212;-63
2024/04/07 07:38:16;;;;;;;3.90;2.57;;;22.00;46.90;;;;;;5063908;28;20687;-61
2024/04/07 07:40:42;;;;;;;3.00;2.67;;;22.10;46.80;;;;;;5062928;28;20445;-58
2024/04/07 07:43:07;;;;;;;5.67;2.90;;;22.20;47.00;;;;;;5061336;28;20618;-60
2024/04/07 07:45:33;;;;;;;6.03;4.03;;;22.20;46.90;;;;;;5066507;28;20184;-62
2024/04/07 07:47:58;;;;;;;4.30;2.43;;;22.20;47.10;;;;;;5069868;28;20208;-64
2024/04/07 07:50:24;;;;;;;3.80;3.00;;;22.20;47.10;;;;;;5062412;28;20191;-62
2024/04/07 07:52:49;;;;;;;2.47;2.10;;;22.30;47.00;;;;;;5062743;28;20543;-58
2024/04/07 07:55:16;;;;;;;6.77;2.97;;;22.40;47.10;;;;;;5066308;28;20230;-62
2024/04/07 07:57:41;;;;;;;4.33;2.63;;;22.30;47.20;;;;;;5061226;28;20223;-63
2024/04/07 08:00:11;;;;;;;3.50;3.03;;;22.00;47.80;;;;;;5061509;28;20640;-60
2024/04/07 08:02:37;;;;;;;8.20;3.37;;;22.20;47.90;;;;;;5063767;28;20192;-61
2024/04/07 08:05:04;;;;;;;5.63;3.00;;;22.30;47.60;;;;;;5068425;28;20438;-61
2024/04/07 08:07:29;;;;;;;4.10;3.20;;;22.50;47.60;;;;;;5067799;28;20525;-62
2024/04/07 08:09:55;;;;;;;9.60;3.20;;;22.70;47.60;;;;;;5063369;28;20521;-60
2024/04/07 08:12:21;;;;;;;4.30;3.27;;;22.90;47.20;;;;;;5063112;28;20191;-60
2024/04/07 08:14:47;;;;;;;4.90;3.13;;;23.10;47.00;;;;;;5059906;28;20280;-62
2024/04/07 08:17:12;;;;;;;4.93;3.30;;;23.30;46.90;;;;;;5067448;28;20216;-61
2024/04/07 08:19:38;;;;;;;3.97;3.50;;;23.40;46.60;;;;;;5064829;28;20242;-61
2024/04/07 08:22:03;;;;;;;6.37;3.93;;;23.50;45.90;;;;;;5067803;28;20176;-64
2024/04/07 08:24:29;;;;;;;3.77;3.47;;;23.60;45.90;;;;;;5063053;28;20188;-60
2024/04/07 08:26:55;;;;;;;7.80;3.17;;;23.80;46.50;;;;;;5061311;28;20254;-59
2024/04/07 08:29:20;;;;;;;4.53;2.93;;;23.90;47.00;;;;;;5064651;28;20807;-61
2024/04/07 08:31:46;;;;;;;3.20;2.90;;;24.00;46.30;;;;;;5065706;28;20267;-62
2024/04/07 08:34:12;;;;;;;6.97;2.70;;;24.10;45.40;;;;;;5067252;28;20187;-61
2024/04/07 08:36:37;;;;;;;3.20;2.90;;;24.20;45.10;;;;;;5067746;28;20593;-60
2024/04/07 08:39:03;;;;;;;4.43;2.80;;;24.30;45.30;;;;;;5066651;28;20179;-62
2024/04/07 08:41:28;;;;;;;5.07;3.33;;;24.40;45.40;;;;;;5065634;28;20198;-58
2024/04/07 08:43:54;;;;;;;4.30;2.77;;;24.60;45.40;;;;;;5065132;28;20196;-62
2024/04/07 08:46:22;;;;;;;7.73;3.00;;;24.60;45.20;;;;;;5062400;28;20631;-61
2024/04/07 08:48:52;;;;;;;3.40;3.10;;;24.70;45.00;;;;;;5058878;28;20458;-60
2024/04/07 08:51:18;;;;;;;4.57;2.90;;;24.80;44.60;;;;;;5066898;28;21103;-61
2024/04/07 08:53:45;;;;;;;8.37;2.70;;;24.90;44.40;;;;;;5065347;28;20442;-64
2024/04/07 08:56:12;;;;;;;2.40;2.10;;;25.00;44.20;;;;;;5058388;28;20989;-62
2024/04/07 08:58:42;;;;;;;5.10;2.03;;;25.00;43.00;;;;;;5062143;28;20445;-61
2024/04/07 09:01:14;;;;;;;3.50;2.93;;;25.10;43.30;;;;;;5061239;28;20796;-62
2024/04/07 09:03:41;;;;;;;4.53;2.43;;;25.20;43.10;;;;;;5056401;28;20543;-63
2024/04/07 09:06:07;;;;;;;3.30;2.10;;;25.20;42.90;;;;;;5058671;28;20447;-61
2024/04/07 09:08:32;;;;;;;5.23;2.47;;;25.30;42.70;;;;;;5062745;28;20965;-60
2024/04/07 09:10:58;;;;;;;8.53;2.40;;;25.30;42.10;;;;;;5062499;28;20453;-62
2024/04/07 09:13:24;;;;;;;7.20;2.80;;;25.40;42.90;;;;;;5056781;28;20222;-60
2024/04/07 09:15:50;;;;;;;2.77;2.00;;;25.40;42.30;;;;;;5062076;28;20590;-58
2024/04/07 09:18:20;;;;;;;3.33;2.10;;;25.50;42.30;;;;;;5062221;28;20207;-59
2024/04/07 09:20:46;;;;;;;7.37;2.60;;;25.50;41.80;;;;;;5056362;28;20450;-62
2024/04/07 09:23:12;;;;;;;4.90;2.00;;;25.50;42.10;;;;;;5060602;28;20449;-62
2024/04/07 09:25:38;;;;;;;3.57;2.00;;;25.70;42.30;;;;;;5058624;28;20521;-62
2024/04/07 09:28:06;;;;;;;4.10;2.00;;;25.80;42.30;;;;;;5064657;28;20377;-62
2024/04/07 09:30:32;;;;;;;2.87;1.90;;;25.90;42.30;;;;;;5062731;28;20188;-62
2024/04/07 09:32:58;;;;;;;2.13;1.43;;;25.90;41.40;;;;;;5056330;28;20454;-56
2024/04/07 09:35:24;;;;;;;2.20;1.73;;;26.00;41.20;;;;;;5059044;28;20466;-59
2024/04/07 09:37:50;;;;;;;7.00;2.33;;;26.20;42.30;;;;;;5057070;28;20266;-58
2024/04/07 09:40:16;;;;;;;5.60;2.20;;;26.30;40.70;;;;;;5060820;28;20869;-60
2024/04/07 09:42:43;;;;;;;5.17;2.10;;;26.40;40.30;;;;;;5061478;28;20183;-62
2024/04/07 09:45:10;;;;;;;6.30;2.00;;;26.50;40.80;;;;;;5060608;28;20199;-62
2024/04/07 09:47:37;;;;;;;9.03;1.90;;;26.70;40.00;;;;;;5060481;28;20947;-60
2024/04/07 09:50:12;;;;;;;6.37;1.80;;;26.50;39.40;;;;;;5062519;28;20452;-59
2024/04/07 09:52:45;;;;;;;5.10;2.00;;;26.40;39.50;;;;;;5062456;28;20446;-60
2024/04/07 09:55:15;;;;;;;6.17;2.53;;;26.50;39.60;;;;;;5060006;28;20855;-62
2024/04/07 09:57:41;;;;;;;3.33;1.80;;;26.60;39.90;;;;;;5058155;28;20511;-63
2024/04/07 10:00:10;;;;;;;4.53;2.03;;;26.70;39.80;;;;;;5059272;28;20434;-60
2024/04/07 10:02:38;;;;;;;5.40;1.97;;;26.90;39.40;;;;;;5059035;28;20429;-60
2024/04/07 10:05:05;;;;;;;3.97;2.03;;;27.00;39.00;;;;;;5058312;28;20447;-61
2024/04/07 10:07:35;;;;;;;7.30;2.13;;;27.00;38.90;;;;;;5077538;28;21008;-59
2024/04/07 10:10:02;;;;;;;4.63;2.10;;;26.90;38.40;;;;;;5064833;28;20532;-58
2024/04/07 10:12:29;;;;;;;5.40;1.97;;;27.00;39.00;;;;;;5056844;28;20533;-60
2024/04/07 10:14:55;;;;;;;5.87;2.03;;;27.20;40.00;;;;;;5067088;28;20957;-63
2024/04/07 10:17:22;;;;;;;4.00;2.10;;;27.40;38.60;;;;;;5066891;28;20885;-61
2024/04/07 10:19:50;;;;;;;2.47;1.50;;;27.40;37.90;;;;;;5061739;28;20446;-57
2024/04/07 10:22:17;;;;;;;4.50;2.20;;;27.50;38.00;;;;;;5069618;28;20445;-60
2024/04/07 10:24:47;;;;;;;5.30;1.60;;;27.70;38.50;;;;;;5065228;28;20426;-60
2024/04/07 10:27:13;;;;;;;6.20;2.10;;;27.90;37.40;;;;;;5067832;28;20453;-61
2024/04/07 10:29:40;;;;;;;7.37;2.10;;;28.20;38.70;;;;;;5062002;28;20441;-57
2024/04/07 10:32:26;;;;;;;4.67;1.93;;;28.40;37.30;;;;;;5069614;28;20196;-59
2024/04/07 10:34:59;;;;;;;3.43;1.67;;;28.50;36.10;;;;;;5065882;28;20437;-58
2024/04/07 10:37:26;;;;;;;3.57;2.00;;;28.70;36.00;;;;;;5069314;28;21103;-61
2024/04/07 10:39:51;;;;;;;2.17;1.70;;;28.80;35.70;;;;;;5064737;28;20458;-62
2024/04/07 10:42:17;;;;;;;8.30;2.60;;;28.80;35.10;;;;;;5062393;28;20963;-61
2024/04/07 10:44:43;;;;;;;3.07;2.03;;;29.00;35.00;;;;;;5062705;28;20180;-58
2024/04/07 10:47:10;;;;;;;4.13;2.20;;;29.20;33.40;;;;;;5068908;28;20204;-64
2024/04/07 10:49:38;;;;;;;5.93;1.83;;;29.30;34.00;;;;;;5059415;28;20477;-61
2024/04/07 10:52:03;;;;;;;2.40;1.53;;;29.40;35.10;;;;;;5065128;28;20442;-58
2024/04/07 10:54:33;;;;;;;3.53;2.10;;;29.60;35.20;;;;;;5066852;28;20671;-62
2024/04/07 10:56:58;;;;;;;5.63;1.97;;;29.60;33.90;;;;;;5065349;28;20224;-58
2024/04/07 10:59:24;;;;;;;3.47;1.90;;;29.60;34.70;;;;;;5059414;28;20776;-60
2024/04/07 11:01:49;;;;;;;6.80;2.00;;;29.70;34.50;;;;;;5061341;28;20183;-63
2024/04/07 11:04:15;;;;;;;4.43;2.70;;;29.80;34.30;;;;;;5060778;28;20188;-60
2024/04/07 11:06:41;;;;;;;7.97;2.10;;;29.90;34.70;;;;;;5063077;28;20208;-61
2024/04/07 11:09:06;;;;;;;5.60;1.90;;;29.90;35.20;;;;;;5060701;28;20180;-59
2024/04/07 11:11:32;;;;;;;3.20;1.70;;;30.00;34.60;;;;;;5067387;28;20229;-60
2024/04/07 11:13:58;;;;;;;6.07;2.10;;;30.10;34.90;;;;;;5063836;28;20673;-60
2024/04/07 11:16:23;;;;;;;5.00;2.20;;;30.20;34.80;;;;;;5059549;28;20242;-60
2024/04/07 11:18:49;;;;;;;3.33;2.77;;;30.20;33.90;;;;;;5066060;28;20208;-59
2024/04/07 11:21:15;;;;;;;3.07;1.70;;;30.40;34.70;;;;;;5072715;23;20196;-57
2024/04/07 11:23:40;;;;;;;5.17;2.40;;;30.40;34.40;;;;;;5040932;28;20196;-57
2024/04/07 11:26:06;;;;;;;7.23;2.57;;;30.60;34.20;;;;;;5040139;28;20193;-58
2024/04/07 11:28:32;;;;;;;4.97;2.30;;;30.70;33.80;;;;;;5065758;28;20234;-58
2024/04/07 11:30:58;;;;;;;5.27;2.17;;;30.60;33.40;;;;;;5062699;28;20978;-59
2024/04/07 11:33:25;;;;;;;6.07;2.67;;;30.80;33.90;;;;;;5057077;28;20215;-59
2024/04/07 11:35:51;;;;;;;6.67;2.00;;;30.90;33.80;;;;;;5062212;28;20222;-58
2024/04/07 11:38:17;;;;;;;6.03;2.00;;;31.10;33.10;;;;;;5064500;28;20529;-59
2024/04/07 11:40:42;;;;;;;4.80;2.00;;;31.00;33.50;;;;;;5064484;28;20560;-59
2024/04/07 11:43:09;;;;;;;6.93;2.13;;;31.20;33.20;;;;;;5064965;28;20265;-58
2024/04/07 11:45:35;;;;;;;3.30;1.97;;;31.50;32.30;;;;;;5068632;28;20275;-59
2024/04/07 11:48:02;;;;;;;5.03;1.90;;;31.60;31.90;;;;;;5064460;28;20605;-60
2024/04/07 11:50:28;;;;;;;4.90;2.57;;;31.80;31.60;;;;;;5054245;28;20927;-58
2024/04/07 11:52:54;;;;;;;6.07;2.17;;;31.80;31.70;;;;;;5065453;28;20546;-59
2024/04/07 11:55:19;;;;;;;4.00;1.90;;;31.90;32.40;;;;;;5061716;28;20176;-59
2024/04/07 11:57:45;;;;;;;2.43;1.80;;;32.00;31.20;;;;;;5057774;28;20281;-59
2024/04/07 12:00:11;;;;;;;6.93;2.40;;;31.90;30.40;;;;;;5064560;28;20181;-58
2024/04/07 12:02:37;;;;;;;4.40;2.07;;;31.80;30.80;;;;;;5067029;28;20200;-60
2024/04/07 12:05:03;;;;;;;5.43;1.97;;;32.00;31.80;;;;;;5063258;28;20439;-59
2024/04/07 12:07:30;;;;;;;5.70;2.10;;;32.10;30.60;;;;;;5065256;28;20208;-58
2024/04/07 12:09:56;;;;;;;7.37;2.87;;;32.20;31.60;;;;;;5062164;28;20525;-58
2024/04/07 12:12:22;;;;;;;6.93;2.57;;;32.30;31.00;;;;;;5063292;28;20969;-60
2024/04/07 12:14:48;;;;;;;6.70;2.80;;;32.20;30.10;;;;;;5060603;28;20445;-59
2024/04/07 12:17:14;;;;;;;4.60;2.27;;;32.30;30.50;;;;;;5063977;28;20499;-60
2024/04/07 12:19:40;;;;;;;8.47;2.40;;;32.40;30.00;;;;;;5065117;28;20195;-58
2024/04/07 12:22:15;;;;;;;5.40;2.50;;;32.30;30.40;;;;;;5061855;28;20203;-60
2024/04/07 12:24:41;;;;;;;7.40;2.27;;;32.20;30.70;;;;;;5061577;28;20466;-58
2024/04/07 12:27:06;;;;;;;5.87;3.23;;;32.20;29.90;;;;;;5056561;28;22408;-60
2024/04/07 12:29:32;;;;;;;6.10;2.23;;;32.40;30.00;;;;;;5062350;28;20184;-60
2024/04/07 12:31:57;;;;;;;8.23;1.97;;;32.40;29.80;;;;;;5063359;28;20184;-57
2024/04/07 12:34:23;;;;;;;6.03;2.00;;;32.20;29.70;;;;;;5060012;28;20180;-58
2024/04/07 12:36:49;;;;;;;6.83;2.60;;;32.30;30.50;;;;;;5061486;28;20223;-59
2024/04/07 12:39:15;;;;;;;7.13;2.07;;;32.20;29.90;;;;;;5063222;28;20184;-59
2024/04/07 12:41:40;;;;;;;5.13;2.67;;;32.30;29.90;;;;;;5061972;28;20258;-58
2024/04/07 12:44:07;;;;;;;5.87;2.07;;;32.30;30.10;;;;;;5061412;28;20188;-58
2024/04/07 12:46:33;;;;;;;6.13;2.80;;;32.30;30.00;;;;;;5063185;28;20282;-58
2024/04/07 12:48:58;;;;;;;5.83;2.50;;;32.40;29.90;;;;;;5062968;28;20949;-60